KCYSKGTF

Guest
Details From KCYS - CHEYENNE RGNL JERRY OLSON FLD
To KGTF - Great Falls Intl
Flight Number -
Tags generated
Created
Modified
Stats Distance 481 nm / 890 km
Max Altitude 34,000 ft / 10,363 m
Waypoints 6
Social Downloads 0
Likes 0
Share VATSIM

Download

Looking for another format? Having issues loading an existing format? Contact us
Advertisement - Login to hide

Notes

Basic altitude profile: - Ascent Rate: 2500ft/min - Ascent Speed: 250kts - Cruise Altitude: 24000ft - Cruise Speed: 300kts - Descent Rate: 1500ft/min - Descent Speed: 250kts Options: - Use NATs: yes - Use PACOTS: yes - Use low airways: no - Use high airways: yes

Route

KCYS CYS J13 GTF KGTF

ID Type Via Altitude (ft/m) Position (lat/lon) Dist (leg/tot) Name
O KCYS APT - 0 / 0 41.15561 / -104.81162 - / 0 nm CHEYENNE RGNL JERRY OLSON FLD
CYS VOR - 1,300 / 396 41.21097 / -104.77292 3 / 3 nm CHEYENNE VORTAC
DDY DME J13 (AWY-HI) 34,000 / 10,363 43.09086 / -106.27702 131 / 135 nm MUDDY MOUNTAIN VOR-DME
BIL VOR J13 (AWY-HI) 32,900 / 10,028 45.80856 / -108.62464 191 / 326 nm BILLINGS VORTAC
GTF DME J13 (AWY-HI) 18,000 / 5,486 47.44998 / -111.41216 151 / 478 nm GREAT FALLS VORTAC
O KGTF APT - 0 / 0 47.48273 / -111.37124 2 / 480 nm Great Falls Intl

Altitude Profile

Advertisement - Login to hide

Weather


0- 5 10 15 20 25 30 35+ Temperature / °C

Clouds and Precipitation
Forecast for 2018-10-19 18:00 UTC. Updated 2 hours ago

Ground ~20,000 ft ~40,000 ft Winds

KCYS

Details ICAO KCYS (CYS)
Name CHEYENNE RGNL JERRY OLSON FLD
Region United States
Timezone America/Denver (UTC-6.0)
Stats Elevation 6,156 ft / 1,876 m (AMSL)
Location 41.155600° -104.812000°
Runways 2
Magnetic Variation 8.157° E

METAR

KCYS 191653Z 35018G26KT 10SM CLR 13/M05 A3036 RMK AO2 PK WND 34027/1614 SLP239 T01281050

Decode

TAF

TAF KCYS 191120Z 1912/2012 28010KT P6SM SKC FM191500 32012G20KT P6SM SCT100 FM192300 36006KT P6SM SKC

Decode

Departure Runways

ID Width Length Bearing (true/mag) Surface Threshold Overrun Markings Lighting
09 151 ft / 46 m 9,235 ft / 2,815 m 95.29° / 87.13° CONCRETE 623 ft / 190 m 400 ft / 122 m APP EDGE THRESHOLD REIL-OMNI
13 151 ft / 46 m 6,681 ft / 2,036 m 135.39° / 127.24° ASPHALT 364 ft / 111 m 0 ft / 0 m APP EDGE THRESHOLD REIL-OMNI
27 151 ft / 46 m 9,235 ft / 2,815 m 275.31° / 267.15° CONCRETE 659 ft / 201 m 194 ft / 59 m PREC-APP EDGE THRESHOLD MALSR
31 151 ft / 46 m 6,681 ft / 2,036 m 315.41° / 307.25° ASPHALT 276 ft / 84 m 0 ft / 0 m APP EDGE THRESHOLD REIL-OMNI

KGTF

Details ICAO KGTF (GTF)
Name Great Falls Intl
Region United States
Timezone America/Denver (UTC-6.0)
Stats Elevation 3,677 ft / 1,121 m (AMSL)
Location 47.482700° -111.371000°
Runways 3
Magnetic Variation 12.182° E

METAR

KGTF 191653Z 24006KT 10SM CLR 10/01 A3035 RMK AO2 SLP291 T01000006

Decode

TAF

TAF KGTF 191120Z 1912/2012 VRB06KT P6SM FEW070 SCT200= TAF KWMC 191120Z 1912/2012 VRB04KT P6SM SKC

Decode

Destination Runways

ID Width Length Bearing (true/mag) Surface Threshold Overrun Markings Lighting
03 150 ft / 46 m 10,487 ft / 3,196 m 44.91° / 32.73° ASPHALT 0 ft / 0 m 0 ft / 0 m PREC-APP EDGE THRESHOLD MALSR
07 75 ft / 23 m 4,282 ft / 1,305 m 89.99° / 77.81° ASPHALT 0 ft / 0 m 0 ft / 0 m APP EDGE THRESHOLD
16 150 ft / 46 m 6,359 ft / 1,938 m 180.02° / 167.84° ASPHALT 0 ft / 0 m 0 ft / 0 m APP EDGE THRESHOLD
21 150 ft / 46 m 10,487 ft / 3,196 m 224.94° / 212.75° ASPHALT 0 ft / 0 m 1,002 ft / 305 m PREC-APP EDGE THRESHOLD REIL-OMNI
25 75 ft / 23 m 4,282 ft / 1,305 m 270.01° / 257.82° ASPHALT 0 ft / 0 m 0 ft / 0 m APP EDGE THRESHOLD
34 150 ft / 46 m 6,359 ft / 1,938 m 0.02° / 347.84° ASPHALT 0 ft / 0 m 0 ft / 0 m APP EDGE THRESHOLD

Approach Navaids

Runway Type Ident Frequency Range Bearing (true/mag) Slope Elevation
03 MM MM - - 44.92° / 32.74 ° - 3,677 ft / 1,121 m (AMSL)
03 LOC-ILS ISMR 111.30 MHz 18 nm / 33 km 44.94° / 32.76 ° - 3,646 ft / 1,111 m (AMSL)
03 GS ISMR 111.30 MHz 10 nm / 19 km 45.85° / 33.67 ° 3.00° 3,671 ft / 1,119 m (AMSL)
03 OM OM - - 44.92° / 32.74 ° - 3,677 ft / 1,121 m (AMSL)